Time;durP1;ratioP1;P1;durP2;ratioP2;P2;SDS_P1;SDS_P2;PMS_P1;PMS_P2;Temp;Humidity;BMP_temperature;BMP_pressure;BME280_temperature;BME280_humidity;BME280_pressure;Samples;Min_cycle;Max_cycle;Signal;HPM_P1;HPM_P2
2022/05/06 00:01:39;;;;;;;22.85;16.48;;;;;;;15.28;58.94;101229.84;4188683;28;20036;-57
2022/05/06 00:03:42;;;;;;;26.77;16.25;;;;;;;15.27;58.02;101235.94;4186941;28;20063;-57
2022/05/06 00:05:46;;;;;;;20.88;14.82;;;;;;;15.29;58.75;101226.38;4190352;28;20120;-57
2022/05/06 00:07:49;;;;;;;21.75;16.38;;;;;;;15.25;59.02;101232.47;4191380;28;20052;-57
2022/05/06 00:09:51;;;;;;;23.15;16.25;;;;;;;15.27;58.39;101238.56;4186923;28;20033;-57
2022/05/06 00:11:55;;;;;;;21.98;15.85;;;;;;;15.25;58.47;101237.69;4186084;28;20037;-57
2022/05/06 00:13:58;;;;;;;26.60;15.98;;;;;;;15.27;58.90;101237.69;4189955;28;20028;-57
2022/05/06 00:16:03;;;;;;;24.52;13.90;;;;;;;15.25;58.86;101240.31;4185250;28;20053;-57
2022/05/06 00:18:25;;;;;;;27.80;16.50;;;;;;;15.28;58.14;101242.09;4189789;28;20094;-57
2022/05/06 00:20:48;;;;;;;20.35;15.25;;;;;;;15.30;58.72;101245.59;4194472;28;20490;-57
2022/05/06 00:22:50;;;;;;;24.00;14.60;;;;;;;15.21;57.98;101238.53;4175481;28;20036;-57
2022/05/06 00:24:53;;;;;;;21.63;14.07;;;;;;;15.27;58.20;101240.31;4186932;28;20025;-57
2022/05/06 00:26:57;;;;;;;20.45;14.15;;;;;;;15.26;58.42;101242.06;4190468;28;20048;-57
2022/05/06 00:29:00;;;;;;;24.85;15.93;;;;;;;15.28;57.90;101245.56;4185254;28;20032;-57
2022/05/06 00:31:03;;;;;;;19.77;13.68;;;;;;;15.25;58.04;101245.56;4182941;28;20402;-57
2022/05/06 00:33:07;;;;;;;21.47;14.03;;;;;;;15.23;58.12;101247.28;4193478;28;20052;-57
2022/05/06 00:35:10;;;;;;;18.52;13.55;;;;;;;15.19;58.76;101248.13;4186962;28;20405;-57
2022/05/06 00:37:15;;;;;;;21.93;13.67;;;;;;;15.14;57.80;101240.25;4188815;28;20045;-57
2022/05/06 00:39:23;;;;;;;18.73;13.70;;;;;;;15.17;58.49;101247.22;4190307;28;20048;-57
2022/05/06 00:41:26;;;;;;;26.73;15.65;;;;;;;15.11;57.90;101244.56;4191387;28;20524;-57
2022/05/06 00:43:29;;;;;;;20.05;14.27;;;;;;;15.08;58.60;101248.03;4187103;28;20041;-57
2022/05/06 00:45:40;;;;;;;22.40;13.73;;;;;;;15.08;59.02;101244.53;4191527;28;20037;-57
2022/05/06 00:47:44;;;;;;;24.27;13.60;;;;;;;15.06;59.01;101243.66;4186610;28;20041;-57
2022/05/06 00:49:47;;;;;;;20.10;13.95;;;;;;;15.06;58.88;101238.44;4190266;28;20494;-57
2022/05/06 00:51:52;;;;;;;20.40;11.90;;;;;;;15.04;58.25;101242.75;4193640;28;20036;-57
2022/05/06 00:53:56;;;;;;;;;;;;;;;14.98;58.17;101247.09;4190757;28;20130;-57
2022/05/06 00:55:59;;;;;;;18.33;11.45;;;;;;;15.00;58.83;101247.97;4175549;28;19921;-57
2022/05/06 00:58:03;;;;;;;18.23;11.90;;;;;;;15.09;58.25;101247.16;4179875;28;20060;-57
2022/05/06 01:00:19;;;;;;;17.93;11.47;;;;;;;15.06;58.11;101246.28;4190053;28;20033;-57
2022/05/06 01:02:23;;;;;;;14.52;10.02;;;;;;;15.06;58.18;101241.03;4169061;28;20064;-57
2022/05/06 01:04:30;;;;;;;17.98;11.85;;;;;;;15.05;58.11;101239.28;4188153;28;20507;-58
2022/05/06 01:06:36;;;;;;;15.13;10.75;;;;;;;15.05;57.43;101239.28;4185804;28;20045;-57
2022/05/06 01:08:39;;;;;;;16.70;10.80;;;;;;;15.02;57.65;101240.13;4182958;28;20075;-57
2022/05/06 01:10:44;;;;;;;14.55;9.70;;;;;;;14.99;57.13;101240.97;4187568;28;20519;-57
2022/05/06 01:12:47;;;;;;;14.52;9.63;;;;;;;15.05;57.55;101239.28;4186381;28;20521;-57
2022/05/06 01:14:54;;;;;;;17.88;10.55;;;;;;;14.97;57.54;101237.47;4188952;28;20036;-57
2022/05/06 01:17:09;;;;;;;13.33;9.87;;;;;;;15.00;57.04;101241.88;4187791;28;20102;-57
2022/05/06 01:19:12;;;;;;;18.30;10.82;;;;;;;14.96;57.20;101240.94;4187629;28;20070;-57
2022/05/06 01:21:23;;;;;;;14.02;9.20;;;;;;;14.95;56.74;101240.94;4179825;28;20067;-57
2022/05/06 01:23:27;;;;;;;13.18;10.05;;;;;;;14.91;56.65;101242.66;4157497;28;20136;-57
2022/05/06 01:25:30;;;;;;;14.57;9.52;;;;;;;14.87;56.85;101248.72;4186374;28;20044;-57
2022/05/06 01:27:37;;;;;;;14.05;9.30;;;;;;;14.90;56.67;101246.13;4186777;28;20050;-57
2022/05/06 01:29:43;;;;;;;15.10;9.20;;;;;;;14.77;56.67;101247.75;4187574;28;20518;-57
2022/05/06 01:31:46;;;;;;;15.10;9.52;;;;;;;14.78;57.00;101244.28;4192423;28;20044;-57
2022/05/06 01:33:55;;;;;;;16.48;9.32;;;;;;;14.81;56.55;101246.06;4184079;28;20036;-57
2022/05/06 01:36:01;;;;;;;14.95;9.63;;;;;;;14.79;56.48;101248.66;4188213;28;20029;-57
2022/05/06 01:38:06;;;;;;;15.43;9.38;;;;;;;14.70;56.29;101247.69;4190409;28;20032;-57
2022/05/06 01:40:16;;;;;;;10.93;7.68;;;;;;;14.64;56.84;101244.13;4190491;28;20040;-57
2022/05/06 01:42:24;;;;;;;13.73;8.32;;;;;;;14.66;57.15;101252.91;4179573;28;20041;-57
2022/05/06 01:44:38;;;;;;;14.10;8.65;;;;;;;14.70;56.72;101247.69;4188373;28;20036;-57
2022/05/06 01:46:43;;;;;;;14.55;7.93;;;;;;;14.72;55.99;101244.22;4187232;28;20052;-57
2022/05/06 01:48:56;;;;;;;15.07;8.23;;;;;;;14.64;55.99;101249.38;4187026;28;20052;-57
2022/05/06 01:51:03;;;;;;;13.30;7.40;;;;;;;14.66;56.27;101247.66;4182414;28;20394;-57
2022/05/06 01:53:14;;;;;;;13.90;7.95;;;;;;;14.60;56.23;101242.34;4187317;28;20102;-57
2022/05/06 01:55:22;;;;;;;15.15;7.57;;;;;;;14.60;56.44;101242.34;4181207;28;20090;-57
2022/05/06 01:57:33;;;;;;;12.30;6.53;;;;;;;14.61;56.13;101249.34;4171887;28;20435;-57
2022/05/06 01:59:36;;;;;;;14.23;7.78;;;;;;;14.62;55.49;101250.25;4187877;28;20074;-57
2022/05/06 02:01:50;;;;;;;9.30;6.35;;;;;;;14.58;56.09;101248.41;4187663;28;20049;-57
2022/05/06 02:06:19;;;;;;;9.55;5.75;;;;;;;14.56;55.63;101245.78;4184493;28;20444;-57
2022/05/06 02:08:30;;;;;;;10.30;6.78;;;;;;;14.57;56.07;101247.56;4167159;28;20045;-59
2022/05/06 02:10:35;;;;;;;10.45;6.78;;;;;;;14.62;55.01;101240.63;4185707;28;20049;-57
2022/05/06 02:12:40;;;;;;;14.10;6.47;;;;;;;14.54;55.61;101247.50;4179029;28;20032;-57
2022/05/06 02:14:51;;;;;;;12.73;6.63;;;;;;;14.61;55.29;101249.34;4187787;28;20044;-57
2022/05/06 02:17:14;;;;;;;15.07;6.47;;;;;;;14.58;54.85;101251.03;4192361;28;20094;-57
2022/05/06 02:19:27;;;;;;;10.85;6.28;;;;;;;14.52;54.94;101257.06;4185633;28;20052;-57
2022/05/06 02:21:48;;;;;;;10.73;6.43;;;;;;;14.57;55.15;101252.78;4175420;28;20083;-57
2022/05/06 02:24:11;;;;;;;11.60;5.65;;;;;;;14.57;54.11;101251.88;4186536;28;20046;-57
2022/05/06 02:26:36;;;;;;;9.68;5.85;;;;;;;14.49;53.98;101249.19;4185296;28;20063;-57
2022/05/06 02:28:41;;;;;;;9.73;5.70;;;;;;;14.36;54.45;101261.25;4191025;28;20045;-57
2022/05/06 02:33:13;;;;;;;13.60;5.35;;;;;;;14.18;54.68;101247.94;4178781;28;20041;-57
2022/05/06 02:35:21;;;;;;;13.25;5.97;;;;;;;14.21;54.59;101253.25;4160342;28;20065;-57
2022/05/06 02:37:24;;;;;;;9.35;5.60;;;;;;;14.14;54.31;101247.91;4170544;28;20053;-57
2022/05/06 02:39:28;;;;;;;12.00;6.05;;;;;;;14.17;55.06;101261.91;4179603;28;20120;-57
2022/05/06 02:41:44;;;;;;;9.43;5.77;;;;;;;14.17;54.79;101254.94;4171249;28;20103;-57
2022/05/06 02:43:48;;;;;;;11.25;5.70;;;;;;;14.22;54.48;101261.09;4186801;28;20297;-57
2022/05/06 02:45:52;;;;;;;9.90;5.72;;;;;;;14.15;54.54;101264.50;4169862;28;20124;-57
2022/05/06 02:47:56;;;;;;;9.20;5.28;;;;;;;14.19;54.82;101268.03;4204127;28;20032;-57
2022/05/06 02:49:58;;;;;;;11.52;6.00;;;;;;;14.18;54.41;101261.94;4189016;28;20048;-57
2022/05/06 02:52:03;;;;;;;10.43;5.25;;;;;;;14.15;55.00;101264.50;4184706;28;20490;-57
2022/05/06 02:54:07;;;;;;;8.90;5.93;;;;;;;14.09;54.60;101249.63;4186680;28;20115;-57
2022/05/06 02:56:13;;;;;;;8.68;5.68;;;;;;;14.08;55.36;101258.31;4179011;28;20037;-57
2022/05/06 02:58:30;;;;;;;11.13;5.25;;;;;;;14.10;55.30;101256.56;4182227;28;20040;-57
2022/05/06 03:00:33;;;;;;;10.00;5.05;;;;;;;14.03;54.97;101260.00;4190961;28;20066;-57
2022/05/06 03:02:40;;;;;;;9.52;4.80;;;;;;;13.99;55.10;101257.31;4183672;28;20055;-57
2022/05/06 03:04:43;;;;;;;11.10;6.13;;;;;;;13.92;55.71;101261.59;4171869;28;20048;-57
2022/05/06 03:06:52;;;;;;;10.25;5.30;;;;;;;14.05;55.22;101262.63;4188983;28;20414;-57
2022/05/06 03:09:11;;;;;;;11.98;5.60;;;;;;;14.00;55.30;101269.53;4180355;28;20037;-57
2022/05/06 03:11:15;;;;;;;11.07;5.53;;;;;;;13.95;55.63;101261.63;4186237;28;20049;-57
2022/05/06 03:13:25;;;;;;;9.18;5.70;;;;;;;13.91;55.69;101265.91;4180747;28;20484;-57
2022/05/06 03:15:35;;;;;;;12.25;5.10;;;;;;;13.99;55.21;101263.44;4182521;28;20060;-57
2022/05/06 03:17:48;;;;;;;;;;;;;;;13.85;55.33;101258.00;4193876;28;20067;-57
2022/05/06 03:19:51;;;;;;;10.40;5.68;;;;;;;13.92;55.11;101256.38;4185981;28;19928;-57
2022/05/06 03:21:55;;;;;;;10.75;5.78;;;;;;;13.89;55.68;101258.94;4184268;28;20491;-57
2022/05/06 03:24:00;;;;;;;10.75;5.90;;;;;;;13.88;55.94;101255.44;4183674;28;20478;-57
2022/05/06 03:26:04;;;;;;;10.10;5.82;;;;;;;13.87;55.81;101266.75;4180679;28;20040;-57
2022/05/06 03:28:08;;;;;;;10.48;5.60;;;;;;;13.89;55.48;101265.03;4187389;28;20489;-57
2022/05/06 03:30:12;;;;;;;8.40;5.60;;;;;;;13.92;55.64;101262.47;4178925;28;20037;-57
2022/05/06 03:32:18;;;;;;;9.35;5.10;;;;;;;13.91;55.49;101259.81;4187324;28;20128;-57
2022/05/06 03:34:21;;;;;;;10.48;5.10;;;;;;;13.84;55.04;101264.06;4200708;28;20075;-57
2022/05/06 03:36:25;;;;;;;12.00;5.75;;;;;;;13.90;55.24;101264.19;4171742;28;20477;-57
2022/05/06 03:38:34;;;;;;;11.75;5.45;;;;;;;13.87;55.22;101260.63;4187281;28;20041;-57
2022/05/06 03:40:37;;;;;;;11.18;5.57;;;;;;;13.81;55.62;101269.25;4192100;28;20490;-57
2022/05/06 03:42:42;;;;;;;8.60;5.22;;;;;;;13.78;55.01;101266.63;4186130;28;20567;-57
2022/05/06 03:44:45;;;;;;;7.53;4.60;;;;;;;13.72;55.71;101266.53;4182656;28;20041;-57
2022/05/06 03:46:49;;;;;;;10.35;5.15;;;;;;;13.67;55.68;101260.34;4183372;28;20082;-57
2022/05/06 03:49:01;;;;;;;14.55;6.15;;;;;;;13.73;55.23;101253.50;4180694;28;20056;-58
2022/05/06 03:51:23;;;;;;;13.07;6.45;;;;;;;13.79;55.88;101260.53;4169061;28;20084;-57
2022/05/06 03:53:48;;;;;;;8.70;5.03;;;;;;;13.61;55.89;101263.78;4176408;28;20037;-56
2022/05/06 03:55:51;;;;;;;11.60;5.32;;;;;;;13.69;55.84;101267.38;4179778;28;20036;-57
2022/05/06 03:57:54;;;;;;;8.80;5.70;;;;;;;13.65;56.24;101267.31;4185471;28;20033;-57
2022/05/06 03:59:59;;;;;;;8.55;5.75;;;;;;;13.60;56.48;101270.72;4169336;28;20116;-57
2022/05/06 04:02:17;;;;;;;10.30;5.70;;;;;;;13.52;56.52;101266.22;4187879;28;20072;-57
2022/05/06 04:04:26;;;;;;;12.43;6.07;;;;;;;13.64;56.73;101271.66;4181342;28;20037;-57
2022/05/06 04:06:32;;;;;;;12.55;5.97;;;;;;;13.56;56.38;101268.91;4184469;28;20036;-57
2022/05/06 04:08:35;;;;;;;11.20;5.50;;;;;;;13.57;56.01;101268.06;4188423;28;20076;-57
2022/05/06 04:10:39;;;;;;;;;;;;;;;13.43;56.21;101277.41;4183471;28;20036;-57
2022/05/06 04:12:43;;;;;;;11.23;6.13;;;;;;;13.43;56.65;101277.41;4181934;28;19989;-57
2022/05/06 04:14:46;;;;;;;12.88;5.90;;;;;;;13.40;56.79;101274.75;4162689;28;20136;-57
2022/05/06 04:16:50;;;;;;;9.13;5.82;;;;;;;13.40;56.33;101280.88;4191994;28;20090;-57
2022/05/06 04:19:19;;;;;;;15.60;6.47;;;;;;;13.39;56.55;101283.44;4174763;28;20126;-57
2022/05/06 04:23:46;;;;;;;12.52;6.25;;;;;;;13.25;57.18;101285.81;4162042;28;20038;-57
2022/05/06 04:25:51;;;;;;;11.65;5.88;;;;;;;13.36;56.64;101281.69;4177837;28;20045;-57
2022/05/06 04:27:56;;;;;;;9.57;5.88;;;;;;;13.30;56.92;101285.88;4196003;28;20157;-57
2022/05/06 04:29:59;;;;;;;12.82;6.60;;;;;;;13.40;56.88;101286.09;4211449;28;20086;-58
2022/05/06 04:32:14;;;;;;;9.57;6.13;;;;;;;13.34;56.75;101287.69;4166368;28;20454;-57
2022/05/06 04:34:17;;;;;;;10.57;5.47;;;;;;;13.28;57.29;101288.47;4181289;28;20123;-58
2022/05/06 04:36:20;;;;;;;8.88;5.60;;;;;;;13.33;56.96;101293.75;4181280;28;20037;-58
2022/05/06 04:38:29;;;;;;;8.18;5.88;;;;;;;13.30;56.88;101293.72;4164814;28;20045;-58
2022/05/06 04:40:36;;;;;;;10.60;6.32;;;;;;;13.33;56.44;101297.28;4193367;28;20044;-57
2022/05/06 04:42:40;;;;;;;10.90;6.10;;;;;;;13.24;56.88;101300.63;4181423;28;20029;-56
2022/05/06 04:44:43;;;;;;;10.10;6.00;;;;;;;13.28;56.53;101301.53;4181391;28;20140;-57
2022/05/06 04:46:47;;;;;;;13.27;6.72;;;;;;;13.21;57.13;101308.38;4164075;28;20303;-57
2022/05/06 04:48:52;;;;;;;14.18;6.50;;;;;;;13.17;57.23;101306.59;4179788;28;20131;-57
2022/05/06 04:50:56;;;;;;;9.98;6.13;;;;;;;13.19;57.34;101307.47;4180736;28;20075;-57
2022/05/06 04:53:00;;;;;;;11.32;5.13;;;;;;;13.23;56.76;101309.28;4181113;28;20075;-57
2022/05/06 04:55:05;;;;;;;9.52;6.25;;;;;;;13.15;57.26;101318.72;4164510;28;20145;-57
2022/05/06 04:57:08;;;;;;;12.10;5.28;;;;;;;13.20;57.15;101317.06;4197546;28;20040;-57
2022/05/06 04:59:12;;;;;;;10.18;6.60;;;;;;;13.14;57.17;101324.81;4181235;28;20048;-57
2022/05/06 05:01:20;;;;;;;11.40;5.82;;;;;;;13.17;56.65;101321.34;4180599;28;20304;-57
2022/05/06 05:03:24;;;;;;;12.63;5.70;;;;;;;13.15;56.48;101323.94;4181050;28;20434;-57
2022/05/06 05:05:30;;;;;;;10.45;5.75;;;;;;;13.06;57.11;101326.41;4164539;28;20077;-57
2022/05/06 05:07:37;;;;;;;9.32;5.50;;;;;;;13.06;57.41;101335.09;4180767;28;20489;-57
2022/05/06 05:09:40;;;;;;;18.90;6.07;;;;;;;13.10;57.33;101338.66;4164009;28;20045;-58
2022/05/06 05:11:47;;;;;;;9.98;5.63;;;;;;;13.13;57.53;101332.59;4180773;28;20041;-57
2022/05/06 05:13:56;;;;;;;15.57;5.95;;;;;;;13.11;57.26;101332.56;4180724;28;20546;-57
2022/05/06 05:16:08;;;;;;;11.02;5.68;;;;;;;13.15;57.21;101334.38;4196847;28;20040;-57
2022/05/06 05:18:12;;;;;;;11.55;5.80;;;;;;;13.09;57.31;101334.28;4180612;28;20036;-57
2022/05/06 05:20:16;;;;;;;10.40;6.07;;;;;;;13.07;57.42;101331.66;4163507;28;20046;-57
2022/05/06 05:22:20;;;;;;;9.10;6.07;;;;;;;13.09;56.86;101329.94;4180648;28;20124;-57
2022/05/06 05:24:24;;;;;;;;;;;;;;;13.00;57.07;101334.13;4181026;28;20083;-57
2022/05/06 05:26:29;;;;;;;12.25;5.38;;;;;;;12.95;57.39;101340.97;4163979;28;19951;-57
2022/05/06 05:28:34;;;;;;;9.70;5.70;;;;;;;12.98;58.12;101333.19;4163954;28;20128;-57
2022/05/06 05:30:37;;;;;;;14.82;6.45;;;;;;;13.05;58.30;101342.91;4179925;28;20047;-57
2022/05/06 05:32:43;;;;;;;12.13;6.13;;;;;;;13.13;57.34;101343.94;4180511;28;20099;-57
2022/05/06 05:34:49;;;;;;;14.88;6.43;;;;;;;13.06;57.49;101342.06;4180556;28;20080;-57
2022/05/06 05:36:56;;;;;;;9.30;6.20;;;;;;;13.12;57.49;101342.16;4162598;28;20049;-57
2022/05/06 05:38:58;;;;;;;12.48;6.00;;;;;;;13.06;57.26;101344.66;4180344;28;20469;-57
2022/05/06 05:41:02;;;;;;;8.75;5.63;;;;;;;13.09;57.21;101339.50;4181088;28;20049;-57
2022/05/06 05:48:19;;;;;;;10.23;5.85;;;;;;;12.97;57.44;101347.13;4196894;28;20040;-57
2022/05/06 05:50:29;;;;;;;9.13;5.53;;;;;;;12.97;57.57;101354.94;4156823;28;20064;-57
2022/05/06 05:52:35;;;;;;;13.73;6.38;;;;;;;12.87;57.60;101349.53;4163619;28;20038;-57
2022/05/06 05:54:38;;;;;;;10.07;5.75;;;;;;;12.88;58.02;101353.91;4163418;28;20057;-57
2022/05/06 05:56:41;;;;;;;11.45;6.10;;;;;;;12.88;57.71;101360.88;4196648;28;20094;-57
2022/05/06 05:58:46;;;;;;;;;;;;;;;12.68;58.12;101350.91;4180485;28;20487;-57
2022/05/06 06:00:55;;;;;;;14.40;6.82;;;;;;;12.80;57.79;101346.78;4179676;28;19927;-57
2022/05/06 06:03:04;;;;;;;12.10;6.07;;;;;;;12.85;58.11;101351.25;4180165;28;20041;-57
2022/05/06 06:05:11;;;;;;;12.43;6.72;;;;;;;12.81;57.47;101348.56;4163231;28;20507;-57
2022/05/06 06:07:18;;;;;;;9.57;5.85;;;;;;;12.80;57.85;101352.00;4179883;28;20461;-57
2022/05/06 06:09:28;;;;;;;10.13;5.63;;;;;;;12.72;57.77;101360.56;4179853;28;20079;-57
2022/05/06 06:11:36;;;;;;;14.25;7.05;;;;;;;12.69;57.71;101360.50;4179773;28;20040;-56
2022/05/06 06:13:42;;;;;;;13.02;6.60;;;;;;;12.73;57.61;101367.56;4179672;28;20037;-56
2022/05/06 06:15:50;;;;;;;18.27;6.68;;;;;;;12.70;57.75;101362.28;4163195;28;20055;-57
2022/05/06 06:17:59;;;;;;;17.23;6.47;;;;;;;12.67;58.20;101369.16;4163277;28;20061;-57
2022/05/06 06:20:05;;;;;;;11.40;6.53;;;;;;;12.65;58.44;101363.03;4180568;28;20037;-58
2022/05/06 06:22:14;;;;;;;14.15;7.35;;;;;;;12.70;57.75;101361.38;4179832;28;20048;-57
2022/05/06 06:24:38;;;;;;;16.45;6.72;;;;;;;12.67;58.27;101362.19;4195767;28;20519;-57
2022/05/06 06:26:41;;;;;;;15.70;6.53;;;;;;;12.68;58.68;101368.31;4179167;28;20124;-57
2022/05/06 06:28:49;;;;;;;13.68;6.60;;;;;;;12.78;58.49;101364.16;4179665;28;20036;-57
2022/05/06 06:30:53;;;;;;;18.40;7.00;;;;;;;12.75;58.02;101365.84;4179327;28;20033;-57
2022/05/06 06:32:56;;;;;;;13.43;6.82;;;;;;;12.68;57.95;101374.38;4162830;28;20045;-57
2022/05/06 06:35:01;;;;;;;13.68;6.93;;;;;;;12.77;58.35;101372.81;4179506;28;20510;-57
2022/05/06 06:37:12;;;;;;;15.88;6.20;;;;;;;12.72;58.32;101376.22;4179691;28;20048;-58
2022/05/06 06:39:19;;;;;;;18.35;7.47;;;;;;;12.72;58.39;101380.56;4179732;28;20049;-58
2022/05/06 06:41:25;;;;;;;16.25;7.03;;;;;;;12.78;58.06;101375.47;4179200;28;20071;-57
2022/05/06 06:43:28;;;;;;;13.38;6.70;;;;;;;12.84;58.16;101377.31;4180173;28;20041;-57
2022/05/06 06:45:47;;;;;;;11.82;6.78;;;;;;;12.76;58.29;101377.13;4162963;28;20116;-57
2022/05/06 06:48:09;;;;;;;13.23;5.78;;;;;;;12.74;59.10;101371.03;4180664;28;20095;-57
2022/05/06 06:50:27;;;;;;;17.90;6.43;;;;;;;12.78;59.14;101379.81;4179105;28;20429;-57
2022/05/06 06:52:48;;;;;;;12.20;6.97;;;;;;;12.82;59.02;101377.28;4180475;28;20041;-57
2022/05/06 06:54:51;;;;;;;11.85;6.13;;;;;;;12.89;58.65;101375.66;4179273;28;20060;-57
2022/05/06 06:56:54;;;;;;;15.90;6.32;;;;;;;12.83;59.11;101379.03;4180488;28;20540;-57
2022/05/06 06:58:57;;;;;;;16.92;7.28;;;;;;;12.97;58.67;101378.44;4179396;28;20506;-57
2022/05/06 07:01:00;;;;;;;13.65;7.38;;;;;;;13.08;58.32;101371.66;4178998;28;20041;-57
2022/05/06 07:03:03;;;;;;;19.25;7.85;;;;;;;13.05;57.94;101384.66;4178235;28;20037;-57
2022/05/06 07:05:07;;;;;;;13.20;6.50;;;;;;;13.04;58.07;101377.69;4180553;28;20048;-57
2022/05/06 07:11:56;;;;;;;19.70;7.80;;;;;;;13.12;58.75;101372.63;4180165;28;20041;-57
2022/05/06 07:14:03;;;;;;;21.05;8.25;;;;;;;13.25;58.37;101372.00;4179238;28;20037;-57
2022/05/06 07:16:06;;;;;;;16.85;7.00;;;;;;;13.27;58.15;101368.56;4180440;28;20037;-57
2022/05/06 07:18:09;;;;;;;18.17;8.38;;;;;;;13.33;58.91;101374.72;4179358;28;20426;-57
2022/05/06 07:20:12;;;;;;;16.98;7.75;;;;;;;13.46;58.43;101373.25;4180060;28;20047;-56
2022/05/06 07:22:17;;;;;;;20.02;7.72;;;;;;;13.60;58.21;101377.84;4178721;28;20469;-57
2022/05/06 07:24:30;;;;;;;23.02;7.68;;;;;;;13.68;58.40;101372.75;4179189;28;20075;-58
2022/05/06 07:26:33;;;;;;;16.08;7.88;;;;;;;13.78;58.39;101379.91;4180224;28;20071;-58
2022/05/06 07:28:35;;;;;;;18.80;8.05;;;;;;;13.97;58.55;101382.78;4176706;28;20037;-57
2022/05/06 07:30:38;;;;;;;16.88;8.23;;;;;;;14.13;57.37;101379.53;4176710;28;20040;-60
2022/05/06 07:32:41;;;;;;;14.82;7.35;;;;;;;14.17;57.72;101377.84;4179992;28;20454;-59
2022/05/06 07:34:44;;;;;;;18.23;8.05;;;;;;;14.33;57.58;101378.94;4180341;28;20556;-60
2022/05/06 07:36:47;;;;;;;11.30;7.35;;;;;;;14.37;56.70;101377.22;4179992;28;20406;-60
2022/05/06 07:38:51;;;;;;;11.60;7.13;;;;;;;14.42;57.61;101375.56;4180077;28;20037;-59
2022/05/06 07:40:54;;;;;;;14.35;7.18;;;;;;;14.52;56.85;101380.06;4182420;28;20120;-59
2022/05/06 07:42:57;;;;;;;12.77;6.55;;;;;;;14.64;56.45;101375.00;4183298;28;20045;-59
2022/05/06 07:45:00;;;;;;;11.57;6.40;;;;;;;14.65;56.76;101371.53;4180045;28;20059;-60
2022/05/06 07:47:03;;;;;;;12.20;6.55;;;;;;;14.74;56.91;101380.34;4182020;28;20048;-58
2022/05/06 07:49:07;;;;;;;11.38;6.95;;;;;;;14.96;55.57;101376.22;4180561;28;20037;-58
2022/05/06 07:51:10;;;;;;;11.23;7.00;;;;;;;15.09;55.71;101364.16;4181668;28;20041;-59
2022/05/06 07:53:14;;;;;;;9.25;6.45;;;;;;;15.26;55.37;101377.41;4180337;28;20040;-59
2022/05/06 07:55:25;;;;;;;11.55;6.97;;;;;;;15.33;54.31;101361.78;4182861;28;20410;-59
2022/05/06 07:57:27;;;;;;;13.23;6.28;;;;;;;15.38;53.80;101366.19;4182707;28;20127;-59
2022/05/06 07:59:30;;;;;;;13.68;6.47;;;;;;;15.62;54.32;101363.75;4168683;28;20562;-59
2022/05/06 08:06:14;;;;;;;10.63;5.85;;;;;;;15.92;52.20;101366.63;4166560;28;20407;-63
2022/05/06 08:08:17;;;;;;;14.50;6.05;;;;;;;16.15;50.83;101379.88;4165359;28;20045;-63
2022/05/06 08:10:20;;;;;;;13.02;5.10;;;;;;;16.12;50.49;101377.22;4174016;28;20041;-67
2022/05/06 08:12:27;;;;;;;11.50;5.55;;;;;;;16.18;50.63;101369.44;4166917;28;20055;-62
2022/05/06 08:14:30;;;;;;;10.32;5.45;;;;;;;16.12;50.81;101375.50;4181278;28;20047;-62
2022/05/06 08:16:33;;;;;;;9.77;4.85;;;;;;;16.17;51.04;101365.03;4176940;28;20037;-62
2022/05/06 08:18:37;;;;;;;;;;;;;;;16.16;51.16;101366.75;4179458;28;20033;-63
2022/05/06 08:20:41;;;;;;;11.60;5.15;;;;;;;16.32;50.26;101366.84;4181810;28;19929;-64
2022/05/06 08:22:44;;;;;;;8.98;4.82;;;;;;;16.29;50.43;101367.72;4184142;28;20472;-62
2022/05/06 08:24:47;;;;;;;10.00;5.13;;;;;;;16.39;48.87;101369.50;4182861;28;20136;-62
2022/05/06 08:27:11;;;;;;;9.85;5.60;;;;;;;16.37;49.37;101373.88;4172319;28;20096;-62
2022/05/06 08:29:15;;;;;;;11.25;5.32;;;;;;;16.34;50.15;101372.97;4180993;28;20039;-62
2022/05/06 08:31:18;;;;;;;12.25;5.63;;;;;;;16.45;51.12;101375.69;4182488;28;20556;-62
2022/05/06 08:33:26;;;;;;;9.65;5.38;;;;;;;16.61;49.91;101369.59;4184663;28;20041;-62
2022/05/06 08:35:30;;;;;;;10.27;5.43;;;;;;;16.62;50.35;101371.38;4181848;28;20053;-63
2022/05/06 08:37:40;;;;;;;15.45;6.47;;;;;;;16.67;50.13;101359.13;4198759;28;20086;-63
2022/05/06 08:39:43;;;;;;;13.75;6.50;;;;;;;16.82;49.83;101365.28;4179087;28;20033;-64
2022/05/06 08:41:46;;;;;;;9.95;4.65;;;;;;;16.92;49.28;101359.22;4177476;28;20120;-64
2022/05/06 08:43:49;;;;;;;13.52;4.65;;;;;;;16.99;48.44;101365.38;4190156;28;20500;-64
2022/05/06 08:50:58;;;;;;;5.70;3.63;;;;;;;17.38;46.82;101368.94;4093754;28;20048;-62
2022/05/06 08:53:03;;;;;;;6.28;3.83;;;;;;;17.40;47.51;101360.16;4147769;28;20056;-62
2022/05/06 08:55:06;;;;;;;8.95;4.57;;;;;;;17.55;46.64;101366.31;4183982;28;20439;-62
2022/05/06 08:57:09;;;;;;;9.30;3.10;;;;;;;17.52;46.85;101371.56;4164836;28;20045;-62
2022/05/06 08:59:12;;;;;;;7.28;3.53;;;;;;;17.55;47.78;101368.94;4182111;28;20410;-62
2022/05/06 09:01:22;;;;;;;8.68;4.45;;;;;;;17.96;45.13;101370.72;4187851;28;20060;-62
2022/05/06 09:03:25;;;;;;;11.50;4.40;;;;;;;17.77;46.11;101362.81;4198719;28;20109;-63
2022/05/06 09:05:28;;;;;;;9.95;3.75;;;;;;;17.91;45.95;101372.47;4180497;28;20040;-63
2022/05/06 09:07:34;;;;;;;7.53;3.28;;;;;;;17.89;46.01;101363.69;4183257;28;20075;-63
2022/05/06 09:09:37;;;;;;;10.07;3.70;;;;;;;17.92;45.68;101361.94;4180660;28;20434;-63
2022/05/06 09:14:00;;;;;;;12.10;3.63;;;;;;;18.07;44.51;101360.16;4188142;28;20471;-63
2022/05/06 09:18:42;;;;;;;10.98;4.65;;;;;;;18.16;43.62;101354.00;4173342;28;20083;-66
2022/05/06 09:20:45;;;;;;;6.82;3.38;;;;;;;18.19;45.01;101365.38;4160686;28;20029;-66
2022/05/06 09:22:50;;;;;;;7.00;3.10;;;;;;;18.31;45.79;101368.00;4185797;28;20038;-65
2022/05/06 09:24:54;;;;;;;8.85;3.95;;;;;;;18.48;45.38;101361.78;4187522;28;20044;-67
2022/05/06 09:27:00;;;;;;;8.32;4.25;;;;;;;18.60;44.34;101366.09;4202836;28;20044;-66
2022/05/06 09:29:03;;;;;;;8.80;4.15;;;;;;;18.70;43.58;101352.00;4170534;28;20033;-64
2022/05/06 09:31:08;;;;;;;7.10;3.80;;;;;;;18.48;44.38;101369.66;4170067;28;20483;-63
2022/05/06 09:33:23;;;;;;;;;;;;;;;18.50;44.21;101357.41;4181709;28;20079;-64
2022/05/06 09:35:27;;;;;;;6.57;3.03;;;;;;;18.74;43.39;101363.41;4189138;28;19927;-63
2022/05/06 09:37:37;;;;;;;6.43;3.80;;;;;;;18.83;43.00;101361.59;4192033;28;20040;-63
2022/05/06 09:39:40;;;;;;;7.15;3.22;;;;;;;18.69;44.20;101358.19;4187310;28;20516;-63
2022/05/06 09:41:43;;;;;;;9.77;3.40;;;;;;;18.61;44.42;101357.34;4180627;28;20511;-65
2022/05/06 09:43:58;;;;;;;8.15;3.13;;;;;;;18.55;43.44;101352.09;4181551;28;20051;-65
2022/05/06 09:46:19;;;;;;;5.80;2.70;;;;;;;18.66;43.62;101355.53;4181946;28;20486;-67
2022/05/06 09:48:24;;;;;;;7.10;2.63;;;;;;;18.87;41.40;101351.09;4164979;28;20045;-66
2022/05/06 09:50:35;;;;;;;9.50;3.03;;;;;;;19.12;42.32;101349.16;4164304;28;20503;-65
2022/05/06 09:52:38;;;;;;;4.63;2.85;;;;;;;19.11;41.89;101343.00;4187562;28;20044;-66
2022/05/06 09:54:42;;;;;;;8.40;2.78;;;;;;;19.24;42.43;101342.94;4184949;28;20061;-64
2022/05/06 09:56:45;;;;;;;;;;;;;;;19.35;42.81;101346.38;4181773;28;20064;-64
2022/05/06 09:58:51;;;;;;;7.78;1.92;;;;;;;19.61;40.33;101345.25;4178804;28;20412;-66
2022/05/06 10:00:54;;;;;;;5.88;2.30;;;;;;;19.82;37.33;101349.50;4179453;28;20048;-65
2022/05/06 10:02:58;;;;;;;9.55;2.35;;;;;;;19.70;36.71;101350.47;4162919;28;20054;-65
2022/05/06 10:05:02;;;;;;;4.78;1.95;;;;;;;19.65;36.90;101349.63;4180030;28;20032;-64
2022/05/06 10:07:07;;;;;;;12.32;2.55;;;;;;;19.59;34.91;101344.41;4181164;28;20055;-64
2022/05/06 10:09:10;;;;;;;3.53;1.88;;;;;;;19.46;36.11;101341.00;4173613;28;20119;-63
2022/05/06 10:11:15;;;;;;;5.18;1.80;;;;;;;19.48;36.39;101337.47;4180521;28;20490;-65
2022/05/06 10:13:22;;;;;;;6.60;1.80;;;;;;;19.64;35.78;101342.59;4179352;28;20052;-64
2022/05/06 10:15:28;;;;;;;4.50;1.60;;;;;;;19.65;36.26;101339.06;4174499;28;20132;-64